createdAt,value
2019-02-16T00:00:39.525Z,1013.9
2019-02-16T00:01:40.915Z,1013.9
2019-02-16T00:02:42.304Z,1014.0
2019-02-16T00:03:43.694Z,1013.9
2019-02-16T00:04:45.079Z,1013.9
2019-02-16T00:05:46.472Z,1013.9
2019-02-16T00:06:47.862Z,1013.9
2019-02-16T00:07:49.248Z,1013.9
2019-02-16T00:08:50.635Z,1013.9
2019-02-16T00:09:52.024Z,1013.8
2019-02-16T00:10:53.420Z,1013.9
2019-02-16T00:11:54.804Z,1013.9
2019-02-16T00:12:56.187Z,1013.8
2019-02-16T00:13:57.574Z,1013.8
2019-02-16T00:14:58.957Z,1013.8
2019-02-16T00:16:00.342Z,1013.8
2019-02-16T00:17:01.725Z,1013.9
2019-02-16T00:18:03.926Z,1013.8
2019-02-16T00:19:05.314Z,1013.8
2019-02-16T00:20:06.705Z,1013.9
2019-02-16T00:21:08.096Z,1013.8
2019-02-16T00:22:09.479Z,1013.8
2019-02-16T00:23:10.872Z,1013.8
2019-02-16T00:24:12.264Z,1013.7
2019-02-16T00:25:13.654Z,1013.7
2019-02-16T00:26:15.043Z,1013.7
2019-02-16T00:27:16.427Z,1013.7
2019-02-16T00:28:17.821Z,1013.8
2019-02-16T00:29:19.206Z,1013.7
2019-02-16T00:30:20.595Z,1013.8
2019-02-16T00:31:21.992Z,1013.7
2019-02-16T00:32:23.382Z,1013.7
2019-02-16T00:33:24.763Z,1013.8
2019-02-16T00:34:26.150Z,1013.8
2019-02-16T00:35:27.535Z,1013.8
2019-02-16T00:36:28.921Z,1013.8
2019-02-16T00:37:30.306Z,1013.8
2019-02-16T00:38:31.696Z,1013.8
2019-02-16T00:39:33.085Z,1013.8
2019-02-16T00:40:34.484Z,1013.8
2019-02-16T00:41:35.878Z,1013.8
2019-02-16T00:42:37.261Z,1013.8
2019-02-16T00:43:38.654Z,1013.8
2019-02-16T00:44:40.040Z,1013.7
2019-02-16T00:45:41.427Z,1013.8
2019-02-16T00:46:42.867Z,1013.8
2019-02-16T00:47:44.250Z,1013.8
2019-02-16T00:48:45.639Z,1013.7
2019-02-16T00:49:47.027Z,1013.7
2019-02-16T00:50:48.415Z,1013.7
2019-02-16T00:51:49.805Z,1013.7
2019-02-16T00:52:51.194Z,1013.7
2019-02-16T00:53:52.645Z,1013.6
2019-02-16T00:54:53.933Z,1013.6
2019-02-16T00:55:55.322Z,1013.6
2019-02-16T00:56:56.707Z,1013.6
2019-02-16T00:57:58.092Z,1013.6
2019-02-16T00:58:59.480Z,1013.6
2019-02-16T01:00:00.869Z,1013.7
2019-02-16T01:01:02.255Z,1013.7
2019-02-16T01:02:03.639Z,1013.6
2019-02-16T01:03:05.024Z,1013.7
2019-02-16T01:04:06.414Z,1013.6
2019-02-16T01:05:07.799Z,1013.6
2019-02-16T01:06:09.189Z,1013.6
2019-02-16T01:07:10.578Z,1013.6
2019-02-16T01:08:11.989Z,1013.6
2019-02-16T01:09:13.347Z,1013.6
2019-02-16T01:10:14.735Z,1013.6
2019-02-16T01:11:16.122Z,1013.6
2019-02-16T01:12:17.513Z,1013.5
2019-02-16T01:13:18.896Z,1013.5
2019-02-16T01:14:20.288Z,1013.5
2019-02-16T01:15:21.676Z,1013.5
2019-02-16T01:16:23.064Z,1013.5
2019-02-16T01:17:24.448Z,1013.5
2019-02-16T01:18:25.831Z,1013.4
2019-02-16T01:19:27.218Z,1013.5
2019-02-16T01:20:28.605Z,1013.5
2019-02-16T01:21:29.995Z,1013.5
2019-02-16T01:22:31.386Z,1013.5
2019-02-16T01:23:32.769Z,1013.5
2019-02-16T01:24:34.155Z,1013.4
2019-02-16T01:25:35.548Z,1013.4
2019-02-16T01:26:36.934Z,1013.4
2019-02-16T01:27:38.321Z,1013.4
2019-02-16T01:28:39.713Z,1013.4
2019-02-16T01:29:41.097Z,1013.3
2019-02-16T01:30:42.551Z,1013.4
2019-02-16T01:31:44.000Z,1013.4
2019-02-16T01:32:45.392Z,1013.4
2019-02-16T01:33:46.785Z,1013.4
2019-02-16T01:34:48.168Z,1013.4
2019-02-16T01:35:49.550Z,1013.4
2019-02-16T01:36:50.940Z,1013.4
2019-02-16T01:37:52.347Z,1013.5
2019-02-16T01:38:53.736Z,1013.4
2019-02-16T01:39:55.121Z,1013.4
2019-02-16T01:40:56.507Z,1013.4
2019-02-16T01:41:57.891Z,1013.4
2019-02-16T01:42:59.276Z,1013.3
2019-02-16T01:44:00.662Z,1013.4
2019-02-16T01:45:02.054Z,1013.4
2019-02-16T01:46:03.442Z,1013.4
2019-02-16T01:47:04.827Z,1013.3
2019-02-16T01:48:06.214Z,1013.4
2019-02-16T01:49:07.600Z,1013.4
2019-02-16T01:50:09.016Z,1013.3
2019-02-16T01:51:10.405Z,1013.4
2019-02-16T01:52:11.787Z,1013.3
2019-02-16T01:53:13.170Z,1013.2
2019-02-16T01:54:14.558Z,1013.2
2019-02-16T01:55:15.939Z,1013.3
2019-02-16T01:56:17.329Z,1013.3
2019-02-16T01:57:18.721Z,1013.4
2019-02-16T01:58:20.114Z,1013.3
2019-02-16T01:59:21.496Z,1013.3
2019-02-16T02:00:22.886Z,1013.4
2019-02-16T02:01:24.275Z,1013.3
2019-02-16T02:02:25.698Z,1013.3
2019-02-16T02:03:27.056Z,1013.4
2019-02-16T02:04:28.444Z,1013.3
2019-02-16T02:05:29.830Z,1013.4
2019-02-16T02:06:31.222Z,1013.3
2019-02-16T02:07:32.611Z,1013.3
2019-02-16T02:08:33.996Z,1013.4
2019-02-16T02:09:35.384Z,1013.3
2019-02-16T02:10:36.771Z,1013.3
2019-02-16T02:11:38.152Z,1013.3
2019-02-16T02:12:39.540Z,1013.3
2019-02-16T02:13:40.928Z,1013.3
2019-02-16T02:14:42.315Z,1013.3
2019-02-16T02:15:43.701Z,1013.3
2019-02-16T02:16:45.085Z,1013.2
2019-02-16T02:17:46.477Z,1013.2
2019-02-16T02:18:48.049Z,1013.2
2019-02-16T02:19:49.217Z,1013.2
2019-02-16T02:20:50.604Z,1013.2
2019-02-16T02:21:52.024Z,1013.2
2019-02-16T02:22:53.409Z,1013.1
2019-02-16T02:23:54.798Z,1013.1
2019-02-16T02:24:56.180Z,1013.1
2019-02-16T02:25:57.574Z,1013.1
2019-02-16T02:26:58.962Z,1013.2
2019-02-16T02:28:00.354Z,1013.2
2019-02-16T02:29:01.734Z,1013.1
2019-02-16T02:30:03.126Z,1013.1
2019-02-16T02:31:04.508Z,1013.1
2019-02-16T02:32:05.890Z,1013.2
2019-02-16T02:33:07.277Z,1013.2
2019-02-16T02:34:08.660Z,1013.2
2019-02-16T02:35:10.050Z,1013.2
2019-02-16T02:36:11.429Z,1013.2
2019-02-16T02:37:12.816Z,1013.1
2019-02-16T02:38:14.201Z,1013.2
2019-02-16T02:39:15.591Z,1013.2
2019-02-16T02:40:16.977Z,1013.1
2019-02-16T02:41:18.366Z,1013.1
2019-02-16T02:42:19.760Z,1013.1
2019-02-16T02:43:21.145Z,1013.1
2019-02-16T02:44:22.527Z,1013.2
2019-02-16T02:45:23.913Z,1013.1
2019-02-16T02:46:25.301Z,1013.1
2019-02-16T02:47:26.689Z,1013.1
2019-02-16T02:48:28.088Z,1013.1
2019-02-16T02:49:29.475Z,1013.1
2019-02-16T02:50:30.853Z,1013.1
2019-02-16T02:51:32.243Z,1013.2
2019-02-16T02:52:33.629Z,1013.1
2019-02-16T02:53:35.018Z,1013.1
2019-02-16T02:54:36.403Z,1013.1
2019-02-16T02:55:37.803Z,1013.1
2019-02-16T02:56:39.188Z,1013.1
2019-02-16T02:57:40.577Z,1013.1
2019-02-16T02:58:41.960Z,1013.1
2019-02-16T02:59:43.343Z,1013.2
2019-02-16T03:00:44.733Z,1013.1
2019-02-16T03:01:46.117Z,1013.1
2019-02-16T03:02:47.517Z,1013.1
2019-02-16T03:03:48.902Z,1013.1
2019-02-16T03:04:50.288Z,1013.1
2019-02-16T03:05:51.683Z,1013.0
2019-02-16T03:06:53.067Z,1013.0
2019-02-16T03:07:54.470Z,1013.0
2019-02-16T03:08:55.861Z,1013.1
2019-02-16T03:09:57.314Z,1013.1
2019-02-16T03:10:58.717Z,1013.0
2019-02-16T03:12:00.196Z,1013.0
2019-02-16T03:13:01.601Z,1013.0
2019-02-16T03:14:02.990Z,1013.0
2019-02-16T03:15:04.377Z,1012.9
2019-02-16T03:16:05.765Z,1013.0
2019-02-16T03:17:07.149Z,1013.0
2019-02-16T03:18:08.534Z,1012.9
2019-02-16T03:19:09.920Z,1012.9
2019-02-16T03:20:11.340Z,1012.9
2019-02-16T03:21:12.697Z,1012.9
2019-02-16T03:22:14.083Z,1012.9
2019-02-16T03:23:15.472Z,1012.8
2019-02-16T03:24:16.864Z,1012.9
2019-02-16T03:25:18.248Z,1012.9
2019-02-16T03:26:19.633Z,1012.9
2019-02-16T03:27:21.015Z,1012.8
2019-02-16T03:28:22.401Z,1012.8
2019-02-16T03:29:23.786Z,1012.8
2019-02-16T03:30:25.172Z,1012.8
2019-02-16T03:31:26.588Z,1012.8
2019-02-16T03:32:27.938Z,1012.8
2019-02-16T03:33:29.326Z,1012.7
2019-02-16T03:34:30.705Z,1012.8
2019-02-16T03:35:32.087Z,1012.8
2019-02-16T03:36:33.476Z,1012.7
2019-02-16T03:37:34.861Z,1012.7
2019-02-16T03:38:36.249Z,1012.7
2019-02-16T03:39:37.634Z,1012.7
2019-02-16T03:40:39.021Z,1012.8
2019-02-16T03:41:40.407Z,1012.7
2019-02-16T03:42:41.796Z,1012.7
2019-02-16T03:43:43.183Z,1012.7
2019-02-16T03:44:44.574Z,1012.7
2019-02-16T03:45:46.007Z,1012.8
2019-02-16T03:46:47.397Z,1012.8
2019-02-16T03:47:48.815Z,1012.8
2019-02-16T03:48:50.205Z,1012.8
2019-02-16T03:49:51.595Z,1012.7
2019-02-16T03:50:52.976Z,1012.7
2019-02-16T03:51:54.363Z,1012.7
2019-02-16T03:52:55.753Z,1012.7
2019-02-16T03:53:57.139Z,1012.7
2019-02-16T03:54:58.532Z,1012.7
2019-02-16T03:55:59.921Z,1012.8
2019-02-16T03:57:01.269Z,1012.7
2019-02-16T03:58:02.653Z,1012.7
2019-02-16T03:59:04.037Z,1012.6
2019-02-16T04:00:05.420Z,1012.6
2019-02-16T04:01:06.804Z,1012.7
2019-02-16T04:02:08.192Z,1012.7
2019-02-16T04:03:09.621Z,1012.7
2019-02-16T04:04:11.109Z,1012.7
2019-02-16T04:05:12.494Z,1012.7
2019-02-16T04:06:13.878Z,1012.6
2019-02-16T04:07:15.267Z,1012.7
2019-02-16T04:08:16.648Z,1012.7
2019-02-16T04:09:18.032Z,1012.7
2019-02-16T04:10:19.475Z,1012.7
2019-02-16T04:11:20.864Z,1012.7
2019-02-16T04:12:22.245Z,1012.7
2019-02-16T04:13:23.633Z,1012.7
2019-02-16T04:14:25.035Z,1012.6
2019-02-16T04:15:26.407Z,1012.6
2019-02-16T04:16:27.789Z,1012.6
2019-02-16T04:17:29.175Z,1012.5
2019-02-16T04:18:30.561Z,1012.5
2019-02-16T04:19:31.953Z,1012.6
2019-02-16T04:20:33.339Z,1012.6
2019-02-16T04:21:34.744Z,1012.6
2019-02-16T04:22:36.112Z,1012.6
2019-02-16T04:23:37.503Z,1012.5
2019-02-16T04:24:38.894Z,1012.6
2019-02-16T04:25:40.283Z,1012.6
2019-02-16T04:26:41.665Z,1012.6
2019-02-16T04:27:43.058Z,1012.6
2019-02-16T04:28:44.450Z,1012.6
2019-02-16T04:29:45.838Z,1012.6
2019-02-16T04:30:47.221Z,1012.6
2019-02-16T04:31:48.607Z,1012.6
2019-02-16T04:32:49.989Z,1012.6
2019-02-16T04:33:51.381Z,1012.6
2019-02-16T04:34:52.765Z,1012.6
2019-02-16T04:35:54.162Z,1012.6
2019-02-16T04:36:55.535Z,1012.7
2019-02-16T04:37:56.921Z,1012.6
2019-02-16T04:38:58.310Z,1012.6
2019-02-16T04:39:59.689Z,1012.6
2019-02-16T04:41:01.079Z,1012.6
2019-02-16T04:42:02.486Z,1012.6
2019-02-16T04:43:03.822Z,1012.6
2019-02-16T04:44:05.210Z,1012.6
2019-02-16T04:45:06.593Z,1012.6
2019-02-16T04:46:07.974Z,1012.6
2019-02-16T04:47:09.360Z,1012.6
2019-02-16T04:48:10.749Z,1012.7
2019-02-16T04:49:12.153Z,1012.7
2019-02-16T04:50:13.547Z,1012.7
2019-02-16T04:51:14.932Z,1012.8
2019-02-16T04:52:16.314Z,1012.9
2019-02-16T04:53:17.824Z,1012.8
2019-02-16T04:54:19.235Z,1012.8
2019-02-16T04:55:20.652Z,1012.8
2019-02-16T04:56:22.035Z,1012.8
2019-02-16T04:57:23.431Z,1012.8
2019-02-16T04:58:24.820Z,1012.8
2019-02-16T04:59:26.207Z,1012.7
2019-02-16T05:00:27.589Z,1012.7
2019-02-16T05:01:28.972Z,1012.6
2019-02-16T05:02:30.357Z,1012.6
2019-02-16T05:03:31.742Z,1012.6
2019-02-16T05:04:33.134Z,1012.7
2019-02-16T05:05:34.606Z,1012.7
2019-02-16T05:06:35.989Z,1012.7
2019-02-16T05:07:37.370Z,1012.7
2019-02-16T05:08:38.756Z,1012.7
2019-02-16T05:09:40.141Z,1012.7
2019-02-16T05:10:41.526Z,1012.7
2019-02-16T05:11:42.917Z,1012.7
2019-02-16T05:12:44.299Z,1012.7
2019-02-16T05:13:45.689Z,1012.7
2019-02-16T05:14:47.160Z,1012.6
2019-02-16T05:15:48.426Z,1012.6
2019-02-16T05:16:49.813Z,1012.6
2019-02-16T05:17:51.197Z,1012.6
2019-02-16T05:18:52.581Z,1012.6
2019-02-16T05:19:53.966Z,1012.6
2019-02-16T05:20:55.354Z,1012.6
2019-02-16T05:21:56.764Z,1012.5
2019-02-16T05:22:58.164Z,1012.5
2019-02-16T05:23:59.598Z,1012.5
2019-02-16T05:25:00.983Z,1012.6
2019-02-16T05:26:02.394Z,1012.6
2019-02-16T05:27:03.798Z,1012.6
2019-02-16T05:28:05.184Z,1012.6
2019-02-16T05:29:06.578Z,1012.6
2019-02-16T05:30:07.964Z,1012.5
2019-02-16T05:31:09.351Z,1012.5
2019-02-16T05:32:10.739Z,1012.5
2019-02-16T05:33:12.236Z,1012.5
2019-02-16T05:34:13.620Z,1012.5
2019-02-16T05:35:15.030Z,1012.5
2019-02-16T05:36:16.382Z,1012.5
2019-02-16T05:37:17.771Z,1012.6
2019-02-16T05:38:19.159Z,1012.6
2019-02-16T05:39:20.554Z,1012.6
2019-02-16T05:40:21.946Z,1012.6
2019-02-16T05:41:23.335Z,1012.6
2019-02-16T05:42:24.716Z,1012.6
2019-02-16T05:43:26.134Z,1012.6
2019-02-16T05:44:27.552Z,1012.6
2019-02-16T05:45:28.935Z,1012.6
2019-02-16T05:46:30.323Z,1012.6
2019-02-16T05:47:31.705Z,1012.6
2019-02-16T05:48:33.088Z,1012.6
2019-02-16T05:49:34.476Z,1012.6
2019-02-16T05:50:35.864Z,1012.7
2019-02-16T05:51:37.257Z,1012.6
2019-02-16T05:52:38.636Z,1012.6
2019-02-16T05:53:40.038Z,1012.7
2019-02-16T05:54:41.413Z,1012.7
2019-02-16T05:55:42.797Z,1012.6
2019-02-16T05:56:44.240Z,1012.6
2019-02-16T05:57:45.637Z,1012.7
2019-02-16T05:58:47.035Z,1012.5
2019-02-16T05:59:48.458Z,1012.5
2019-02-16T06:00:49.851Z,1012.6
2019-02-16T06:01:54.087Z,1012.6
2019-02-16T06:02:52.596Z,1012.6
2019-02-16T06:03:54.004Z,1012.5
2019-02-16T06:04:55.395Z,1012.5
2019-02-16T06:05:56.781Z,1012.5
2019-02-16T06:06:58.163Z,1012.6
2019-02-16T06:07:59.551Z,1012.5
2019-02-16T06:09:00.942Z,1012.6
2019-02-16T06:10:02.330Z,1012.6
2019-02-16T06:11:05.683Z,1012.6
2019-02-16T06:12:05.070Z,1012.6
2019-02-16T06:13:06.453Z,1012.6
2019-02-16T06:14:07.840Z,1012.6
2019-02-16T06:15:09.276Z,1012.6
2019-02-16T06:16:10.655Z,1012.6
2019-02-16T06:17:12.094Z,1012.6
2019-02-16T06:18:13.485Z,1012.7
2019-02-16T06:19:14.922Z,1012.7
2019-02-16T06:20:16.306Z,1012.7
2019-02-16T06:21:17.728Z,1012.7
2019-02-16T06:22:19.117Z,1012.7
2019-02-16T06:23:20.507Z,1012.7
2019-02-16T06:24:21.899Z,1012.7
2019-02-16T06:25:23.285Z,1012.7
2019-02-16T06:26:24.670Z,1012.7
2019-02-16T06:27:26.056Z,1012.7
2019-02-16T06:28:27.455Z,1012.7
2019-02-16T06:29:28.847Z,1012.7
2019-02-16T06:30:30.278Z,1012.7
2019-02-16T06:31:31.662Z,1012.7
2019-02-16T06:32:33.073Z,1012.7
2019-02-16T06:33:34.458Z,1012.7
2019-02-16T06:34:35.987Z,1012.7
2019-02-16T06:35:37.471Z,1012.7
2019-02-16T06:36:38.889Z,1012.6
2019-02-16T06:37:40.286Z,1012.6
2019-02-16T06:38:41.718Z,1012.6
2019-02-16T06:39:43.111Z,1012.6
2019-02-16T06:40:44.493Z,1012.6
2019-02-16T06:41:45.881Z,1012.6
2019-02-16T06:42:47.270Z,1012.7
2019-02-16T06:43:48.653Z,1012.7
2019-02-16T06:44:50.043Z,1012.7
2019-02-16T06:45:51.435Z,1012.7
2019-02-16T06:46:52.821Z,1012.8
2019-02-16T06:47:54.278Z,1012.7
2019-02-16T06:48:55.662Z,1012.7
2019-02-16T06:49:57.055Z,1012.7
2019-02-16T06:50:58.436Z,1012.7
2019-02-16T06:51:59.823Z,1012.7
2019-02-16T06:53:01.240Z,1012.8
2019-02-16T06:54:02.639Z,1012.8
2019-02-16T06:55:04.025Z,1012.9
2019-02-16T06:56:05.415Z,1012.8
2019-02-16T06:57:06.809Z,1012.8
2019-02-16T06:58:08.202Z,1012.8
2019-02-16T06:59:09.598Z,1012.9
2019-02-16T07:00:10.983Z,1012.9
2019-02-16T07:01:12.434Z,1012.9
2019-02-16T07:02:13.814Z,1012.9
2019-02-16T07:03:15.217Z,1013.0
2019-02-16T07:04:17.215Z,1013.0
2019-02-16T07:05:18.613Z,1013.0
2019-02-16T07:06:20.001Z,1013.0
2019-02-16T07:07:21.388Z,1013.1
2019-02-16T07:08:22.776Z,1013.1
2019-02-16T07:09:24.171Z,1013.0
2019-02-16T07:10:25.552Z,1013.0
2019-02-16T07:11:26.938Z,1013.1
2019-02-16T07:12:28.326Z,1013.0
2019-02-16T07:13:30.116Z,1013.1
2019-02-16T07:14:31.952Z,1013.1
2019-02-16T07:15:32.855Z,1013.0
2019-02-16T07:16:34.242Z,1013.0
2019-02-16T07:17:35.634Z,1013.1
2019-02-16T07:18:37.075Z,1013.0
2019-02-16T07:19:38.843Z,1013.1
2019-02-16T07:20:40.241Z,1013.1
2019-02-16T07:21:41.658Z,1013.1
2019-02-16T07:22:43.049Z,1013.1
2019-02-16T07:23:44.438Z,1013.1
2019-02-16T07:24:45.827Z,1013.2
2019-02-16T07:25:47.220Z,1013.1
2019-02-16T07:26:48.613Z,1013.1
2019-02-16T07:27:50.005Z,1013.1
2019-02-16T07:28:51.393Z,1013.2
2019-02-16T07:29:52.779Z,1013.2
2019-02-16T07:30:54.166Z,1013.2
2019-02-16T07:31:55.555Z,1013.2
2019-02-16T07:32:56.949Z,1013.2
2019-02-16T07:33:58.347Z,1013.2
2019-02-16T07:34:59.761Z,1013.2
2019-02-16T07:36:01.142Z,1013.2
2019-02-16T07:37:02.530Z,1013.2
2019-02-16T07:38:03.922Z,1013.3
2019-02-16T07:39:05.326Z,1013.3
2019-02-16T07:40:06.721Z,1013.2
2019-02-16T07:41:08.107Z,1013.3
2019-02-16T07:42:09.501Z,1013.2
2019-02-16T07:43:10.887Z,1013.2
2019-02-16T07:44:12.273Z,1013.2
2019-02-16T07:45:13.657Z,1013.2
2019-02-16T07:46:15.049Z,1013.2
2019-02-16T07:47:16.441Z,1013.1
2019-02-16T07:48:17.832Z,1013.2
2019-02-16T07:49:19.219Z,1013.2
2019-02-16T07:50:20.607Z,1013.2
2019-02-16T07:51:21.998Z,1013.3
2019-02-16T07:52:23.383Z,1013.3
2019-02-16T07:53:31.124Z,1013.3
2019-02-16T07:54:26.132Z,1013.3
2019-02-16T07:55:27.520Z,1013.3
2019-02-16T07:56:28.981Z,1013.3
2019-02-16T07:57:30.720Z,1013.2
2019-02-16T07:58:32.140Z,1013.2
2019-02-16T07:59:33.527Z,1013.3
2019-02-16T08:00:34.915Z,1013.2
2019-02-16T08:01:36.303Z,1013.3
2019-02-16T08:02:37.821Z,1013.3
2019-02-16T08:03:39.362Z,1013.4
2019-02-16T08:04:40.749Z,1013.4
2019-02-16T08:05:42.136Z,1013.4
2019-02-16T08:06:43.525Z,1013.3
2019-02-16T08:07:44.912Z,1013.3
2019-02-16T08:08:46.301Z,1013.4
2019-02-16T08:09:47.698Z,1013.4
2019-02-16T08:10:49.178Z,1013.4
2019-02-16T08:11:50.627Z,1013.4
2019-02-16T08:12:52.083Z,1013.4
2019-02-16T08:13:53.495Z,1013.4
2019-02-16T08:14:54.922Z,1013.4
2019-02-16T08:15:56.312Z,1013.4
2019-02-16T08:16:57.715Z,1013.4
2019-02-16T08:17:59.098Z,1013.4
2019-02-16T08:19:00.483Z,1013.4
2019-02-16T08:20:01.871Z,1013.4
2019-02-16T08:21:03.273Z,1013.4
2019-02-16T08:22:04.663Z,1013.4
2019-02-16T08:23:06.093Z,1013.4
2019-02-16T08:24:07.468Z,1013.4
2019-02-16T08:25:08.984Z,1013.4
2019-02-16T08:26:10.373Z,1013.4
2019-02-16T08:27:11.808Z,1013.4
2019-02-16T08:28:13.197Z,1013.4
2019-02-16T08:29:14.632Z,1013.4
2019-02-16T08:30:16.149Z,1013.4
2019-02-16T08:31:17.545Z,1013.5
2019-02-16T08:32:18.935Z,1013.5
2019-02-16T08:33:20.322Z,1013.5
2019-02-16T08:34:21.713Z,1013.4
2019-02-16T08:35:23.100Z,1013.5
2019-02-16T08:36:24.494Z,1013.4
2019-02-16T08:37:25.884Z,1013.4
2019-02-16T08:38:27.276Z,1013.4
2019-02-16T08:39:28.668Z,1013.4
2019-02-16T08:40:30.060Z,1013.4
2019-02-16T08:41:31.450Z,1013.3
2019-02-16T08:42:32.836Z,1013.4
2019-02-16T08:43:34.236Z,1013.3
2019-02-16T08:44:35.628Z,1013.4
2019-02-16T08:45:37.019Z,1013.4
2019-02-16T08:46:38.408Z,1013.3
2019-02-16T08:47:39.798Z,1013.4
2019-02-16T08:48:41.211Z,1013.3
2019-02-16T08:49:42.597Z,1013.4
2019-02-16T08:50:43.989Z,1013.4
2019-02-16T08:51:45.383Z,1013.4
2019-02-16T08:52:46.779Z,1013.4
2019-02-16T08:53:49.853Z,1013.4
2019-02-16T08:54:49.637Z,1013.4
2019-02-16T08:55:51.030Z,1013.4
2019-02-16T08:56:52.419Z,1013.4
2019-02-16T08:57:53.817Z,1013.5
2019-02-16T08:58:55.291Z,1013.5
2019-02-16T08:59:56.752Z,1013.5
2019-02-16T09:00:58.243Z,1013.5
2019-02-16T09:01:59.630Z,1013.5
2019-02-16T09:03:01.020Z,1013.5
2019-02-16T09:04:02.416Z,1013.5
2019-02-16T09:05:03.810Z,1013.5
2019-02-16T09:06:05.204Z,1013.5
2019-02-16T09:07:06.595Z,1013.5
2019-02-16T09:08:07.995Z,1013.5
2019-02-16T09:09:09.390Z,1013.5
2019-02-16T09:10:10.779Z,1013.5
2019-02-16T09:11:12.168Z,1013.4
2019-02-16T09:12:13.560Z,1013.4
2019-02-16T09:13:15.013Z,1013.3
2019-02-16T09:14:16.411Z,1013.3
2019-02-16T09:15:17.806Z,1013.4
2019-02-16T09:16:19.194Z,1013.4
2019-02-16T09:17:20.589Z,1013.4
2019-02-16T09:18:22.043Z,1013.3
2019-02-16T09:19:23.700Z,1013.3
2019-02-16T09:20:25.095Z,1013.3
2019-02-16T09:21:26.493Z,1013.3
2019-02-16T09:22:28.000Z,1013.3
2019-02-16T09:23:29.393Z,1013.3
2019-02-16T09:24:30.788Z,1013.2
2019-02-16T09:25:32.183Z,1013.2
2019-02-16T09:26:33.607Z,1013.2
2019-02-16T09:27:35.006Z,1013.3
2019-02-16T09:28:36.412Z,1013.2
2019-02-16T09:29:37.827Z,1013.3
2019-02-16T09:30:39.589Z,1013.2
2019-02-16T09:31:40.980Z,1013.3
2019-02-16T09:32:42.397Z,1013.3
2019-02-16T09:33:43.797Z,1013.3
2019-02-16T09:34:45.191Z,1013.3
2019-02-16T09:35:46.581Z,1013.2
2019-02-16T09:36:47.983Z,1013.3
2019-02-16T09:37:49.378Z,1013.4
2019-02-16T09:38:50.777Z,1013.3
2019-02-16T09:39:52.402Z,1013.3
2019-02-16T09:40:53.804Z,1013.3
2019-02-16T09:41:55.376Z,1013.3
2019-02-16T09:42:56.773Z,1013.3
2019-02-16T09:43:58.274Z,1013.3
2019-02-16T09:44:59.672Z,1013.3
2019-02-16T09:46:01.362Z,1013.4
2019-02-16T09:47:02.857Z,1013.4
2019-02-16T09:48:04.255Z,1013.4
2019-02-16T09:49:05.661Z,1013.4
2019-02-16T09:50:08.497Z,1013.4
2019-02-16T09:51:09.895Z,1013.4
2019-02-16T09:52:11.285Z,1013.4
2019-02-16T09:53:12.686Z,1013.4
2019-02-16T09:54:14.078Z,1013.4
2019-02-16T09:55:15.476Z,1013.5
2019-02-16T09:56:16.874Z,1013.5
2019-02-16T09:57:18.271Z,1013.5
2019-02-16T09:58:19.669Z,1013.5
2019-02-16T09:59:21.073Z,1013.5
2019-02-16T10:00:22.472Z,1013.6
2019-02-16T10:01:23.863Z,1013.5
2019-02-16T10:02:25.264Z,1013.5
2019-02-16T10:03:26.668Z,1013.6
2019-02-16T10:04:28.127Z,1013.5
2019-02-16T10:05:29.525Z,1013.4
2019-02-16T10:06:30.919Z,1013.5
2019-02-16T10:07:32.313Z,1013.5
2019-02-16T10:08:33.745Z,1013.5
2019-02-16T10:09:35.156Z,1013.5
2019-02-16T10:10:36.592Z,1013.5
2019-02-16T10:11:38.081Z,1013.5
2019-02-16T10:12:39.478Z,1013.5
2019-02-16T10:13:41.211Z,1013.6
2019-02-16T10:14:42.607Z,1013.6
2019-02-16T10:15:44.011Z,1013.6
2019-02-16T10:16:45.397Z,1013.6
2019-02-16T10:17:46.801Z,1013.6
2019-02-16T10:18:48.386Z,1013.6
2019-02-16T10:19:49.859Z,1013.6
2019-02-16T10:20:51.282Z,1013.7
2019-02-16T10:21:52.689Z,1013.6
2019-02-16T10:22:54.084Z,1013.7
2019-02-16T10:23:55.486Z,1013.7
2019-02-16T10:24:56.926Z,1013.7
2019-02-16T10:25:58.354Z,1013.7
2019-02-16T10:26:59.751Z,1013.7
2019-02-16T10:28:01.219Z,1013.7
2019-02-16T10:29:02.622Z,1013.7
2019-02-16T10:30:04.031Z,1013.8
2019-02-16T10:31:05.474Z,1013.7
2019-02-16T10:32:06.978Z,1013.8
2019-02-16T10:33:08.392Z,1013.8
2019-02-16T10:34:09.939Z,1013.8
2019-02-16T10:35:11.338Z,1013.8
2019-02-16T10:36:12.745Z,1013.8
2019-02-16T10:37:14.152Z,1013.8
2019-02-16T10:38:15.557Z,1013.8
2019-02-16T10:39:16.972Z,1013.8
2019-02-16T10:40:18.380Z,1013.8
2019-02-16T10:41:19.787Z,1013.8
2019-02-16T10:42:21.189Z,1013.8
2019-02-16T10:43:22.591Z,1013.8
2019-02-16T10:44:23.997Z,1013.8
2019-02-16T10:45:25.399Z,1013.8
2019-02-16T10:46:26.813Z,1013.8
2019-02-16T10:47:28.218Z,1013.8
2019-02-16T10:48:29.640Z,1013.8
2019-02-16T10:49:31.047Z,1013.7
2019-02-16T10:50:32.455Z,1013.7
2019-02-16T10:51:33.859Z,1013.7
2019-02-16T10:52:35.267Z,1013.7
2019-02-16T10:53:36.684Z,1013.7
2019-02-16T10:54:38.091Z,1013.7
2019-02-16T10:55:39.511Z,1013.6
2019-02-16T10:56:40.914Z,1013.6
2019-02-16T10:57:42.321Z,1013.6
2019-02-16T10:58:43.728Z,1013.6
2019-02-16T10:59:45.947Z,1013.6
2019-02-16T11:00:46.623Z,1013.6
2019-02-16T11:01:48.043Z,1013.6
2019-02-16T11:02:49.451Z,1013.6
2019-02-16T11:03:50.856Z,1013.6
2019-02-16T11:04:52.264Z,1013.6
2019-02-16T11:05:53.671Z,1013.6
2019-02-16T11:06:55.081Z,1013.6
2019-02-16T11:07:56.575Z,1013.5
2019-02-16T11:08:58.048Z,1013.6
2019-02-16T11:09:59.456Z,1013.5
2019-02-16T11:11:00.861Z,1013.5
2019-02-16T11:12:02.275Z,1013.5
2019-02-16T11:13:03.680Z,1013.4
2019-02-16T11:14:05.088Z,1013.5
2019-02-16T11:15:06.495Z,1013.4
2019-02-16T11:16:07.903Z,1013.4
2019-02-16T11:17:09.378Z,1013.4
2019-02-16T11:18:10.788Z,1013.4
2019-02-16T11:19:12.232Z,1013.4
2019-02-16T11:20:13.697Z,1013.4
2019-02-16T11:21:15.110Z,1013.4
2019-02-16T11:22:16.621Z,1013.4
2019-02-16T11:23:18.019Z,1013.4
2019-02-16T11:24:19.428Z,1013.4
2019-02-16T11:25:20.837Z,1013.4
2019-02-16T11:26:22.270Z,1013.4
2019-02-16T11:27:23.683Z,1013.4
2019-02-16T11:28:25.085Z,1013.3
2019-02-16T11:29:26.494Z,1013.3
2019-02-16T11:30:27.905Z,1013.3
2019-02-16T11:31:29.307Z,1013.3
2019-02-16T11:32:30.711Z,1013.2
2019-02-16T11:33:32.130Z,1013.2
2019-02-16T11:34:33.527Z,1013.2
2019-02-16T11:35:34.934Z,1013.2
2019-02-16T11:36:36.345Z,1013.1
2019-02-16T11:37:37.750Z,1013.1
2019-02-16T11:38:39.155Z,1013.1
2019-02-16T11:39:40.561Z,1013.1
2019-02-16T11:40:41.970Z,1013.2
2019-02-16T11:41:43.372Z,1013.1
2019-02-16T11:42:44.777Z,1013.2
2019-02-16T11:43:46.186Z,1013.1
2019-02-16T11:44:47.592Z,1013.1
2019-02-16T11:45:48.997Z,1013.1
2019-02-16T11:46:50.410Z,1013.1
2019-02-16T11:47:51.836Z,1013.1
2019-02-16T11:48:53.241Z,1013.1
2019-02-16T11:49:54.678Z,1013.1
2019-02-16T11:50:56.124Z,1013.1
2019-02-16T11:51:57.534Z,1013.1
2019-02-16T11:52:58.945Z,1013.1
2019-02-16T11:54:00.351Z,1013.1
2019-02-16T11:55:01.758Z,1013.1
2019-02-16T11:56:03.162Z,1013.1
2019-02-16T11:57:04.569Z,1013.1
2019-02-16T11:58:05.977Z,1013.0
2019-02-16T11:59:07.381Z,1013.0
2019-02-16T12:00:08.786Z,1013.1
2019-02-16T12:01:10.188Z,1013.1
2019-02-16T12:02:11.595Z,1013.1
2019-02-16T12:03:13.054Z,1013.1
2019-02-16T12:04:14.461Z,1013.1
2019-02-16T12:05:15.866Z,1013.1
2019-02-16T12:06:17.269Z,1013.0
2019-02-16T12:07:18.671Z,1013.1
2019-02-16T12:08:20.079Z,1013.1
2019-02-16T12:09:21.487Z,1013.1
2019-02-16T12:10:22.894Z,1013.0
2019-02-16T12:11:24.295Z,1013.0
2019-02-16T12:12:25.699Z,1013.1
2019-02-16T12:13:27.103Z,1013.0
2019-02-16T12:14:28.510Z,1013.0
2019-02-16T12:15:29.914Z,1013.0
2019-02-16T12:16:31.315Z,1013.0
2019-02-16T12:17:32.718Z,1013.0
2019-02-16T12:18:34.124Z,1013.1
2019-02-16T12:19:35.526Z,1013.1
2019-02-16T12:20:36.930Z,1013.0
2019-02-16T12:21:38.333Z,1013.0
2019-02-16T12:22:39.731Z,1013.0
2019-02-16T12:23:41.134Z,1013.0
2019-02-16T12:24:42.532Z,1013.0
2019-02-16T12:25:43.935Z,1013.0
2019-02-16T12:26:45.335Z,1013.0
2019-02-16T12:27:46.740Z,1013.0
2019-02-16T12:28:48.149Z,1013.0
2019-02-16T12:29:49.547Z,1012.9
2019-02-16T12:30:50.950Z,1012.9
2019-02-16T12:31:52.352Z,1012.9
2019-02-16T12:32:53.752Z,1012.8
2019-02-16T12:33:55.162Z,1012.9
2019-02-16T12:34:56.562Z,1012.9
2019-02-16T12:35:57.965Z,1012.9
2019-02-16T12:36:59.361Z,1012.9
2019-02-16T12:38:00.764Z,1012.9
2019-02-16T12:39:04.745Z,1012.9
2019-02-16T12:40:03.527Z,1012.8
2019-02-16T12:41:04.933Z,1012.8
2019-02-16T12:42:06.335Z,1012.8
2019-02-16T12:43:07.744Z,1012.8
2019-02-16T12:44:09.144Z,1012.8
2019-02-16T12:45:10.546Z,1012.8
2019-02-16T12:46:11.946Z,1012.8